sensor_id;sensor_type;location;lat;lon;timestamp;P1;durP1;ratioP1;P2;durP2;ratioP2
47053;SDS011;32811;52.382;5.270;2023-06-22T00:00:14;4.05;;;3.65;;
47053;SDS011;32811;52.382;5.270;2023-06-22T00:02:41;4.32;;;3.38;;
47053;SDS011;32811;52.382;5.270;2023-06-22T00:05:07;3.67;;;3.08;;
47053;SDS011;32811;52.382;5.270;2023-06-22T00:07:34;4.35;;;3.25;;
47053;SDS011;32811;52.382;5.270;2023-06-22T00:10:00;4.03;;;3.03;;
47053;SDS011;32811;52.382;5.270;2023-06-22T00:12:27;3.20;;;2.90;;
47053;SDS011;32811;52.382;5.270;2023-06-22T00:14:54;3.50;;;3.08;;
47053;SDS011;32811;52.382;5.270;2023-06-22T00:17:20;3.90;;;3.20;;
47053;SDS011;32811;52.382;5.270;2023-06-22T00:19:47;4.28;;;3.88;;
47053;SDS011;32811;52.382;5.270;2023-06-22T00:22:14;5.70;;;4.28;;
47053;SDS011;32811;52.382;5.270;2023-06-22T00:24:40;5.55;;;3.85;;
47053;SDS011;32811;52.382;5.270;2023-06-22T00:27:08;8.55;;;4.38;;
47053;SDS011;32811;52.382;5.270;2023-06-22T00:29:34;8.65;;;6.65;;
47053;SDS011;32811;52.382;5.270;2023-06-22T00:32:01;7.78;;;5.95;;
47053;SDS011;32811;52.382;5.270;2023-06-22T00:34:27;8.25;;;6.03;;
47053;SDS011;32811;52.382;5.270;2023-06-22T00:36:54;10.27;;;6.05;;
47053;SDS011;32811;52.382;5.270;2023-06-22T00:39:21;6.95;;;5.57;;
47053;SDS011;32811;52.382;5.270;2023-06-22T00:41:47;7.60;;;6.05;;
47053;SDS011;32811;52.382;5.270;2023-06-22T00:44:14;8.85;;;7.10;;
47053;SDS011;32811;52.382;5.270;2023-06-22T00:46:40;7.65;;;6.47;;
47053;SDS011;32811;52.382;5.270;2023-06-22T00:49:07;8.18;;;6.53;;
47053;SDS011;32811;52.382;5.270;2023-06-22T00:51:34;8.38;;;7.15;;
47053;SDS011;32811;52.382;5.270;2023-06-22T00:54:04;8.02;;;6.93;;
47053;SDS011;32811;52.382;5.270;2023-06-22T00:56:31;10.82;;;6.43;;
47053;SDS011;32811;52.382;5.270;2023-06-22T00:58:58;9.27;;;8.18;;
47053;SDS011;32811;52.382;5.270;2023-06-22T01:01:26;12.02;;;7.07;;
47053;SDS011;32811;52.382;5.270;2023-06-22T01:03:53;9.43;;;6.88;;
47053;SDS011;32811;52.382;5.270;2023-06-22T01:06:29;12.27;;;7.15;;
47053;SDS011;32811;52.382;5.270;2023-06-22T01:09:12;8.23;;;7.28;;
47053;SDS011;32811;52.382;5.270;2023-06-22T01:11:44;9.38;;;7.72;;
47053;SDS011;32811;52.382;5.270;2023-06-22T01:14:17;8.35;;;7.55;;
47053;SDS011;32811;52.382;5.270;2023-06-22T01:16:53;8.88;;;7.85;;
47053;SDS011;32811;52.382;5.270;2023-06-22T01:22:01;8.93;;;8.02;;
47053;SDS011;32811;52.382;5.270;2023-06-22T01:24:31;10.75;;;7.93;;
47053;SDS011;32811;52.382;5.270;2023-06-22T01:29:55;12.82;;;8.00;;
47053;SDS011;32811;52.382;5.270;2023-06-22T01:35:08;8.60;;;7.63;;
47053;SDS011;32811;52.382;5.270;2023-06-22T01:37:37;9.13;;;7.75;;
47053;SDS011;32811;52.382;5.270;2023-06-22T01:40:05;8.85;;;7.95;;
47053;SDS011;32811;52.382;5.270;2023-06-22T01:42:36;9.75;;;8.80;;
47053;SDS011;32811;52.382;5.270;2023-06-22T01:45:04;9.77;;;8.77;;
47053;SDS011;32811;52.382;5.270;2023-06-22T01:47:33;9.80;;;8.68;;
47053;SDS011;32811;52.382;5.270;2023-06-22T01:50:00;10.05;;;9.05;;
47053;SDS011;32811;52.382;5.270;2023-06-22T01:52:27;10.75;;;9.55;;
47053;SDS011;32811;52.382;5.270;2023-06-22T01:54:54;8.82;;;7.80;;
47053;SDS011;32811;52.382;5.270;2023-06-22T01:57:20;9.02;;;7.95;;
47053;SDS011;32811;52.382;5.270;2023-06-22T02:00:03;10.30;;;9.13;;
47053;SDS011;32811;52.382;5.270;2023-06-22T02:02:36;11.18;;;9.48;;
47053;SDS011;32811;52.382;5.270;2023-06-22T02:05:07;10.75;;;8.88;;
47053;SDS011;32811;52.382;5.270;2023-06-22T02:07:42;10.25;;;9.05;;
47053;SDS011;32811;52.382;5.270;2023-06-22T02:10:13;8.75;;;7.65;;
47053;SDS011;32811;52.382;5.270;2023-06-22T02:12:44;10.68;;;8.77;;
47053;SDS011;32811;52.382;5.270;2023-06-22T02:15:12;11.13;;;8.35;;
47053;SDS011;32811;52.382;5.270;2023-06-22T02:17:40;11.23;;;8.35;;
47053;SDS011;32811;52.382;5.270;2023-06-22T02:20:12;12.95;;;10.90;;
47053;SDS011;32811;52.382;5.270;2023-06-22T02:22:39;17.48;;;10.05;;
47053;SDS011;32811;52.382;5.270;2023-06-22T02:25:06;11.90;;;10.25;;
47053;SDS011;32811;52.382;5.270;2023-06-22T02:27:33;13.27;;;10.40;;
47053;SDS011;32811;52.382;5.270;2023-06-22T02:30:00;13.40;;;11.00;;
47053;SDS011;32811;52.382;5.270;2023-06-22T02:32:27;18.13;;;13.18;;
47053;SDS011;32811;52.382;5.270;2023-06-22T02:34:53;13.43;;;11.82;;
47053;SDS011;32811;52.382;5.270;2023-06-22T02:37:20;12.45;;;11.13;;
47053;SDS011;32811;52.382;5.270;2023-06-22T02:39:47;12.60;;;11.30;;
47053;SDS011;32811;52.382;5.270;2023-06-22T02:42:13;12.13;;;10.13;;
47053;SDS011;32811;52.382;5.270;2023-06-22T02:44:41;12.70;;;11.40;;
47053;SDS011;32811;52.382;5.270;2023-06-22T02:47:08;16.75;;;13.85;;
47053;SDS011;32811;52.382;5.270;2023-06-22T02:53:15;17.98;;;13.55;;
47053;SDS011;32811;52.382;5.270;2023-06-22T02:55:42;19.55;;;14.65;;
47053;SDS011;32811;52.382;5.270;2023-06-22T02:58:08;19.17;;;15.75;;
47053;SDS011;32811;52.382;5.270;2023-06-22T03:00:35;18.60;;;15.73;;
47053;SDS011;32811;52.382;5.270;2023-06-22T03:03:02;20.80;;;16.27;;
47053;SDS011;32811;52.382;5.270;2023-06-22T03:05:28;18.83;;;16.67;;
47053;SDS011;32811;52.382;5.270;2023-06-22T03:07:55;20.13;;;16.42;;
47053;SDS011;32811;52.382;5.270;2023-06-22T03:10:22;18.75;;;15.13;;
47053;SDS011;32811;52.382;5.270;2023-06-22T03:12:48;20.58;;;15.95;;
47053;SDS011;32811;52.382;5.270;2023-06-22T03:15:15;18.73;;;15.65;;
47053;SDS011;32811;52.382;5.270;2023-06-22T03:17:44;15.18;;;13.40;;
47053;SDS011;32811;52.382;5.270;2023-06-22T03:20:12;18.10;;;15.05;;
47053;SDS011;32811;52.382;5.270;2023-06-22T03:22:39;16.75;;;14.95;;
47053;SDS011;32811;52.382;5.270;2023-06-22T03:25:07;17.83;;;15.05;;
47053;SDS011;32811;52.382;5.270;2023-06-22T03:27:40;16.42;;;14.27;;
47053;SDS011;32811;52.382;5.270;2023-06-22T03:30:08;18.88;;;14.77;;
47053;SDS011;32811;52.382;5.270;2023-06-22T03:32:36;18.15;;;14.20;;
47053;SDS011;32811;52.382;5.270;2023-06-22T03:35:03;14.00;;;12.52;;
47053;SDS011;32811;52.382;5.270;2023-06-22T03:37:31;17.23;;;13.05;;
47053;SDS011;32811;52.382;5.270;2023-06-22T03:39:58;16.00;;;14.23;;
47053;SDS011;32811;52.382;5.270;2023-06-22T03:42:25;16.85;;;13.02;;
47053;SDS011;32811;52.382;5.270;2023-06-22T03:44:52;16.85;;;14.35;;
47053;SDS011;32811;52.382;5.270;2023-06-22T03:47:19;18.58;;;13.25;;
47053;SDS011;32811;52.382;5.270;2023-06-22T03:49:45;18.95;;;14.55;;
47053;SDS011;32811;52.382;5.270;2023-06-22T03:52:12;14.55;;;12.82;;
47053;SDS011;32811;52.382;5.270;2023-06-22T03:54:39;16.65;;;14.55;;
47053;SDS011;32811;52.382;5.270;2023-06-22T03:57:05;15.38;;;13.77;;
47053;SDS011;32811;52.382;5.270;2023-06-22T03:59:32;16.52;;;14.60;;
47053;SDS011;32811;52.382;5.270;2023-06-22T04:01:59;19.05;;;13.82;;
47053;SDS011;32811;52.382;5.270;2023-06-22T04:04:25;16.73;;;14.35;;
47053;SDS011;32811;52.382;5.270;2023-06-22T04:06:52;17.35;;;13.10;;
47053;SDS011;32811;52.382;5.270;2023-06-22T04:09:19;17.55;;;14.55;;
47053;SDS011;32811;52.382;5.270;2023-06-22T04:11:47;15.85;;;13.90;;
47053;SDS011;32811;52.382;5.270;2023-06-22T04:14:14;19.33;;;13.90;;
47053;SDS011;32811;52.382;5.270;2023-06-22T04:16:41;15.75;;;13.63;;
47053;SDS011;32811;52.382;5.270;2023-06-22T04:19:07;16.88;;;14.18;;
47053;SDS011;32811;52.382;5.270;2023-06-22T04:21:39;18.92;;;15.82;;
47053;SDS011;32811;52.382;5.270;2023-06-22T04:24:06;17.75;;;15.90;;
47053;SDS011;32811;52.382;5.270;2023-06-22T04:26:33;17.05;;;14.52;;
47053;SDS011;32811;52.382;5.270;2023-06-22T04:29:03;18.80;;;15.65;;
47053;SDS011;32811;52.382;5.270;2023-06-22T04:31:32;23.10;;;15.45;;
47053;SDS011;32811;52.382;5.270;2023-06-22T04:34:03;18.33;;;16.45;;
47053;SDS011;32811;52.382;5.270;2023-06-22T04:36:38;18.42;;;15.00;;
47053;SDS011;32811;52.382;5.270;2023-06-22T04:39:10;20.08;;;15.43;;
47053;SDS011;32811;52.382;5.270;2023-06-22T04:41:38;18.35;;;16.38;;
47053;SDS011;32811;52.382;5.270;2023-06-22T04:44:12;18.95;;;15.80;;
47053;SDS011;32811;52.382;5.270;2023-06-22T04:46:39;21.63;;;16.52;;
47053;SDS011;32811;52.382;5.270;2023-06-22T04:49:07;23.13;;;17.48;;
47053;SDS011;32811;52.382;5.270;2023-06-22T04:51:40;25.38;;;19.15;;
47053;SDS011;32811;52.382;5.270;2023-06-22T04:54:08;22.10;;;18.13;;
47053;SDS011;32811;52.382;5.270;2023-06-22T04:56:35;29.88;;;19.42;;
47053;SDS011;32811;52.382;5.270;2023-06-22T04:59:02;27.20;;;20.00;;
47053;SDS011;32811;52.382;5.270;2023-06-22T05:01:29;28.02;;;19.83;;
47053;SDS011;32811;52.382;5.270;2023-06-22T05:03:57;27.33;;;20.30;;
47053;SDS011;32811;52.382;5.270;2023-06-22T05:06:27;30.90;;;21.10;;
47053;SDS011;32811;52.382;5.270;2023-06-22T05:08:54;25.50;;;20.15;;
47053;SDS011;32811;52.382;5.270;2023-06-22T05:11:25;23.85;;;18.77;;
47053;SDS011;32811;52.382;5.270;2023-06-22T05:13:54;23.88;;;20.33;;
47053;SDS011;32811;52.382;5.270;2023-06-22T05:16:21;23.05;;;18.70;;
47053;SDS011;32811;52.382;5.270;2023-06-22T05:21:50;28.52;;;21.73;;
47053;SDS011;32811;52.382;5.270;2023-06-22T05:24:16;30.75;;;19.63;;
47053;SDS011;32811;52.382;5.270;2023-06-22T05:26:43;29.40;;;19.52;;
47053;SDS011;32811;52.382;5.270;2023-06-22T05:29:10;26.63;;;19.70;;
47053;SDS011;32811;52.382;5.270;2023-06-22T05:31:36;23.15;;;17.13;;
47053;SDS011;32811;52.382;5.270;2023-06-22T05:34:03;24.10;;;19.58;;
47053;SDS011;32811;52.382;5.270;2023-06-22T05:36:30;27.08;;;20.27;;
47053;SDS011;32811;52.382;5.270;2023-06-22T05:38:56;27.33;;;19.50;;
47053;SDS011;32811;52.382;5.270;2023-06-22T05:41:24;26.98;;;19.35;;
47053;SDS011;32811;52.382;5.270;2023-06-22T05:43:51;24.27;;;19.08;;
47053;SDS011;32811;52.382;5.270;2023-06-22T05:46:18;24.98;;;20.15;;
47053;SDS011;32811;52.382;5.270;2023-06-22T05:48:45;26.00;;;19.33;;
47053;SDS011;32811;52.382;5.270;2023-06-22T05:51:12;27.90;;;18.60;;
47053;SDS011;32811;52.382;5.270;2023-06-22T05:53:38;29.17;;;19.60;;
47053;SDS011;32811;52.382;5.270;2023-06-22T05:56:05;34.63;;;19.90;;
47053;SDS011;32811;52.382;5.270;2023-06-22T05:58:32;23.45;;;18.67;;
47053;SDS011;32811;52.382;5.270;2023-06-22T06:00:58;30.45;;;19.60;;
47053;SDS011;32811;52.382;5.270;2023-06-22T06:03:27;27.77;;;19.02;;
47053;SDS011;32811;52.382;5.270;2023-06-22T06:05:55;25.33;;;18.63;;
47053;SDS011;32811;52.382;5.270;2023-06-22T06:08:22;24.80;;;18.92;;
47053;SDS011;32811;52.382;5.270;2023-06-22T06:10:49;27.10;;;18.30;;
47053;SDS011;32811;52.382;5.270;2023-06-22T06:13:16;21.95;;;17.98;;
47053;SDS011;32811;52.382;5.270;2023-06-22T06:15:42;23.83;;;18.95;;
47053;SDS011;32811;52.382;5.270;2023-06-22T06:18:09;21.65;;;19.35;;
47053;SDS011;32811;52.382;5.270;2023-06-22T06:20:37;21.38;;;18.50;;
47053;SDS011;32811;52.382;5.270;2023-06-22T06:23:04;24.38;;;18.88;;
47053;SDS011;32811;52.382;5.270;2023-06-22T06:25:42;22.35;;;19.52;;
47053;SDS011;32811;52.382;5.270;2023-06-22T06:28:09;22.30;;;17.48;;
47053;SDS011;32811;52.382;5.270;2023-06-22T06:30:36;23.67;;;18.30;;
47053;SDS011;32811;52.382;5.270;2023-06-22T06:33:03;25.75;;;18.65;;
47053;SDS011;32811;52.382;5.270;2023-06-22T06:35:35;21.45;;;18.45;;
47053;SDS011;32811;52.382;5.270;2023-06-22T06:38:02;23.85;;;18.70;;
47053;SDS011;32811;52.382;5.270;2023-06-22T06:40:29;24.25;;;18.10;;
47053;SDS011;32811;52.382;5.270;2023-06-22T06:42:56;22.95;;;17.88;;
47053;SDS011;32811;52.382;5.270;2023-06-22T06:45:23;25.13;;;16.33;;
47053;SDS011;32811;52.382;5.270;2023-06-22T06:47:51;18.67;;;15.05;;
47053;SDS011;32811;52.382;5.270;2023-06-22T06:50:19;19.85;;;16.38;;
47053;SDS011;32811;52.382;5.270;2023-06-22T06:52:48;20.33;;;16.83;;
47053;SDS011;32811;52.382;5.270;2023-06-22T06:55:17;15.45;;;13.77;;
47053;SDS011;32811;52.382;5.270;2023-06-22T06:57:43;17.05;;;13.80;;
47053;SDS011;32811;52.382;5.270;2023-06-22T07:00:14;17.98;;;13.93;;
47053;SDS011;32811;52.382;5.270;2023-06-22T07:02:42;18.73;;;14.27;;
47053;SDS011;32811;52.382;5.270;2023-06-22T07:05:10;18.20;;;13.63;;
47053;SDS011;32811;52.382;5.270;2023-06-22T07:07:39;17.95;;;12.70;;
47053;SDS011;32811;52.382;5.270;2023-06-22T07:10:05;18.25;;;15.00;;
47053;SDS011;32811;52.382;5.270;2023-06-22T07:12:33;14.98;;;13.18;;
47053;SDS011;32811;52.382;5.270;2023-06-22T07:15:03;16.75;;;14.30;;
47053;SDS011;32811;52.382;5.270;2023-06-22T07:17:31;15.05;;;13.52;;
47053;SDS011;32811;52.382;5.270;2023-06-22T07:19:58;17.70;;;13.85;;
47053;SDS011;32811;52.382;5.270;2023-06-22T07:22:25;16.55;;;13.52;;
47053;SDS011;32811;52.382;5.270;2023-06-22T07:24:51;19.52;;;13.73;;
47053;SDS011;32811;52.382;5.270;2023-06-22T07:27:18;14.45;;;11.45;;
47053;SDS011;32811;52.382;5.270;2023-06-22T07:29:46;14.77;;;12.45;;
47053;SDS011;32811;52.382;5.270;2023-06-22T07:32:12;14.40;;;11.65;;
47053;SDS011;32811;52.382;5.270;2023-06-22T07:34:39;14.95;;;11.68;;
47053;SDS011;32811;52.382;5.270;2023-06-22T07:37:06;14.35;;;12.82;;
47053;SDS011;32811;52.382;5.270;2023-06-22T07:39:33;12.68;;;11.32;;
47053;SDS011;32811;52.382;5.270;2023-06-22T07:41:59;15.23;;;11.23;;
47053;SDS011;32811;52.382;5.270;2023-06-22T07:44:26;15.68;;;12.02;;
47053;SDS011;32811;52.382;5.270;2023-06-22T07:46:53;14.90;;;12.93;;
47053;SDS011;32811;52.382;5.270;2023-06-22T07:49:21;15.57;;;12.02;;
47053;SDS011;32811;52.382;5.270;2023-06-22T07:51:47;14.43;;;11.18;;
47053;SDS011;32811;52.382;5.270;2023-06-22T07:54:14;11.70;;;10.45;;
47053;SDS011;32811;52.382;5.270;2023-06-22T07:56:42;12.77;;;10.18;;
47053;SDS011;32811;52.382;5.270;2023-06-22T07:59:09;18.83;;;11.77;;
47053;SDS011;32811;52.382;5.270;2023-06-22T08:01:36;10.95;;;9.80;;
47053;SDS011;32811;52.382;5.270;2023-06-22T08:04:02;11.50;;;10.30;;
47053;SDS011;32811;52.382;5.270;2023-06-22T08:06:30;18.25;;;10.27;;
47053;SDS011;32811;52.382;5.270;2023-06-22T08:08:57;10.60;;;9.05;;
47053;SDS011;32811;52.382;5.270;2023-06-22T08:11:25;11.68;;;9.70;;
47053;SDS011;32811;52.382;5.270;2023-06-22T08:13:52;12.75;;;8.55;;
47053;SDS011;32811;52.382;5.270;2023-06-22T08:16:19;9.50;;;8.50;;
47053;SDS011;32811;52.382;5.270;2023-06-22T08:18:45;13.20;;;9.82;;
47053;SDS011;32811;52.382;5.270;2023-06-22T08:21:15;12.00;;;10.32;;
47053;SDS011;32811;52.382;5.270;2023-06-22T08:23:41;14.18;;;9.30;;
47053;SDS011;32811;52.382;5.270;2023-06-22T08:26:08;11.00;;;9.25;;
47053;SDS011;32811;52.382;5.270;2023-06-22T08:28:35;14.27;;;8.50;;
47053;SDS011;32811;52.382;5.270;2023-06-22T08:31:02;10.02;;;8.30;;
47053;SDS011;32811;52.382;5.270;2023-06-22T08:33:30;12.18;;;9.52;;
47053;SDS011;32811;52.382;5.270;2023-06-22T08:35:58;20.85;;;9.52;;
47053;SDS011;32811;52.382;5.270;2023-06-22T08:38:25;11.45;;;9.18;;
47053;SDS011;32811;52.382;5.270;2023-06-22T08:40:52;13.30;;;8.80;;
47053;SDS011;32811;52.382;5.270;2023-06-22T08:43:19;13.88;;;10.10;;
47053;SDS011;32811;52.382;5.270;2023-06-22T08:45:46;9.73;;;8.73;;
47053;SDS011;32811;52.382;5.270;2023-06-22T08:48:13;11.10;;;9.07;;
47053;SDS011;32811;52.382;5.270;2023-06-22T08:50:40;15.90;;;9.20;;
47053;SDS011;32811;52.382;5.270;2023-06-22T08:53:07;19.10;;;9.02;;
47053;SDS011;32811;52.382;5.270;2023-06-22T08:55:34;9.10;;;7.22;;
47053;SDS011;32811;52.382;5.270;2023-06-22T08:58:01;8.75;;;7.78;;
47053;SDS011;32811;52.382;5.270;2023-06-22T09:00:27;9.32;;;7.10;;
47053;SDS011;32811;52.382;5.270;2023-06-22T09:02:55;8.32;;;6.53;;
47053;SDS011;32811;52.382;5.270;2023-06-22T09:05:25;10.20;;;7.43;;
47053;SDS011;32811;52.382;5.270;2023-06-22T09:07:58;12.05;;;7.13;;
47053;SDS011;32811;52.382;5.270;2023-06-22T09:10:25;9.60;;;6.47;;
47053;SDS011;32811;52.382;5.270;2023-06-22T09:12:54;11.05;;;7.85;;
47053;SDS011;32811;52.382;5.270;2023-06-22T09:15:21;9.85;;;7.28;;
47053;SDS011;32811;52.382;5.270;2023-06-22T09:17:49;16.63;;;8.05;;
47053;SDS011;32811;52.382;5.270;2023-06-22T09:20:16;9.73;;;7.07;;
47053;SDS011;32811;52.382;5.270;2023-06-22T09:22:43;7.47;;;6.72;;
47053;SDS011;32811;52.382;5.270;2023-06-22T09:25:10;7.90;;;6.78;;
47053;SDS011;32811;52.382;5.270;2023-06-22T09:27:36;9.88;;;6.25;;
47053;SDS011;32811;52.382;5.270;2023-06-22T09:30:03;7.93;;;7.13;;
47053;SDS011;32811;52.382;5.270;2023-06-22T09:32:30;8.95;;;6.40;;
47053;SDS011;32811;52.382;5.270;2023-06-22T09:34:57;7.95;;;6.43;;
47053;SDS011;32811;52.382;5.270;2023-06-22T09:37:24;9.52;;;6.05;;
47053;SDS011;32811;52.382;5.270;2023-06-22T09:39:50;7.32;;;5.90;;
47053;SDS011;32811;52.382;5.270;2023-06-22T09:42:17;9.23;;;6.15;;
47053;SDS011;32811;52.382;5.270;2023-06-22T09:44:44;7.50;;;5.75;;
47053;SDS011;32811;52.382;5.270;2023-06-22T09:47:10;6.95;;;6.10;;
47053;SDS011;32811;52.382;5.270;2023-06-22T09:49:37;8.98;;;5.28;;
47053;SDS011;32811;52.382;5.270;2023-06-22T09:52:13;6.20;;;5.45;;
47053;SDS011;32811;52.382;5.270;2023-06-22T09:54:40;8.25;;;5.75;;
47053;SDS011;32811;52.382;5.270;2023-06-22T09:57:07;7.88;;;5.82;;
47053;SDS011;32811;52.382;5.270;2023-06-22T09:59:33;9.02;;;6.28;;
47053;SDS011;32811;52.382;5.270;2023-06-22T10:02:00;8.95;;;5.93;;
47053;SDS011;32811;52.382;5.270;2023-06-22T10:04:27;9.95;;;6.03;;
47053;SDS011;32811;52.382;5.270;2023-06-22T10:06:54;6.93;;;5.88;;
47053;SDS011;32811;52.382;5.270;2023-06-22T10:09:20;9.10;;;5.10;;
47053;SDS011;32811;52.382;5.270;2023-06-22T10:11:47;10.00;;;6.57;;
47053;SDS011;32811;52.382;5.270;2023-06-22T10:14:14;6.45;;;5.90;;
47053;SDS011;32811;52.382;5.270;2023-06-22T10:16:43;9.32;;;6.55;;
47053;SDS011;32811;52.382;5.270;2023-06-22T10:19:09;12.23;;;7.57;;
47053;SDS011;32811;52.382;5.270;2023-06-22T10:21:36;8.13;;;7.20;;
47053;SDS011;32811;52.382;5.270;2023-06-22T10:24:03;7.88;;;7.05;;
47053;SDS011;32811;52.382;5.270;2023-06-22T10:26:33;12.00;;;8.40;;
47053;SDS011;32811;52.382;5.270;2023-06-22T10:29:00;10.70;;;8.45;;
47053;SDS011;32811;52.382;5.270;2023-06-22T10:31:37;11.75;;;7.57;;
47053;SDS011;32811;52.382;5.270;2023-06-22T10:34:10;12.48;;;8.57;;
47053;SDS011;32811;52.382;5.270;2023-06-22T10:36:45;11.98;;;7.63;;
47053;SDS011;32811;52.382;5.270;2023-06-22T10:39:15;9.80;;;7.25;;
47053;SDS011;32811;52.382;5.270;2023-06-22T10:41:41;10.75;;;7.78;;
47053;SDS011;32811;52.382;5.270;2023-06-22T10:44:08;9.88;;;7.25;;
47053;SDS011;32811;52.382;5.270;2023-06-22T10:46:35;9.60;;;7.93;;
47053;SDS011;32811;52.382;5.270;2023-06-22T10:49:04;8.45;;;5.82;;
47053;SDS011;32811;52.382;5.270;2023-06-22T10:51:31;8.55;;;5.80;;
47053;SDS011;32811;52.382;5.270;2023-06-22T10:53:58;5.50;;;5.00;;
47053;SDS011;32811;52.382;5.270;2023-06-22T10:56:27;7.80;;;5.45;;
47053;SDS011;32811;52.382;5.270;2023-06-22T10:58:59;10.20;;;8.00;;
47053;SDS011;32811;52.382;5.270;2023-06-22T11:01:50;7.80;;;7.07;;
47053;SDS011;32811;52.382;5.270;2023-06-22T11:04:30;9.48;;;8.02;;
47053;SDS011;32811;52.382;5.270;2023-06-22T11:06:57;12.10;;;8.32;;
47053;SDS011;32811;52.382;5.270;2023-06-22T11:09:32;10.82;;;9.00;;
47053;SDS011;32811;52.382;5.270;2023-06-22T11:12:03;9.18;;;8.27;;
47053;SDS011;32811;52.382;5.270;2023-06-22T11:14:36;8.43;;;7.40;;
47053;SDS011;32811;52.382;5.270;2023-06-22T11:17:07;14.38;;;8.55;;
47053;SDS011;32811;52.382;5.270;2023-06-22T11:19:34;11.00;;;8.10;;
47053;SDS011;32811;52.382;5.270;2023-06-22T11:22:01;10.32;;;8.23;;
47053;SDS011;32811;52.382;5.270;2023-06-22T11:24:28;11.05;;;8.45;;
47053;SDS011;32811;52.382;5.270;2023-06-22T11:26:54;11.18;;;8.63;;
47053;SDS011;32811;52.382;5.270;2023-06-22T11:29:28;10.88;;;9.02;;
47053;SDS011;32811;52.382;5.270;2023-06-22T11:32:06;10.88;;;8.60;;
47053;SDS011;32811;52.382;5.270;2023-06-22T11:34:39;9.98;;;8.15;;
47053;SDS011;32811;52.382;5.270;2023-06-22T11:37:06;13.05;;;10.05;;
47053;SDS011;32811;52.382;5.270;2023-06-22T11:39:33;9.88;;;8.88;;
47053;SDS011;32811;52.382;5.270;2023-06-22T11:42:08;12.20;;;8.18;;
47053;SDS011;32811;52.382;5.270;2023-06-22T11:44:39;9.68;;;7.72;;
47053;SDS011;32811;52.382;5.270;2023-06-22T11:47:06;8.38;;;7.43;;
47053;SDS011;32811;52.382;5.270;2023-06-22T11:49:33;7.97;;;5.15;;
47053;SDS011;32811;52.382;5.270;2023-06-22T11:51:59;7.85;;;4.20;;
47053;SDS011;32811;52.382;5.270;2023-06-22T11:54:26;4.85;;;3.58;;
47053;SDS011;32811;52.382;5.270;2023-06-22T11:56:53;7.43;;;3.97;;
47053;SDS011;32811;52.382;5.270;2023-06-22T11:59:19;5.80;;;4.68;;
47053;SDS011;32811;52.382;5.270;2023-06-22T12:01:48;5.82;;;4.45;;
47053;SDS011;32811;52.382;5.270;2023-06-22T12:04:17;6.13;;;4.13;;
47053;SDS011;32811;52.382;5.270;2023-06-22T12:06:44;6.85;;;3.50;;
47053;SDS011;32811;52.382;5.270;2023-06-22T12:09:13;6.00;;;4.15;;
47053;SDS011;32811;52.382;5.270;2023-06-22T12:11:45;5.05;;;3.30;;
47053;SDS011;32811;52.382;5.270;2023-06-22T12:14:15;7.35;;;3.58;;
47053;SDS011;32811;52.382;5.270;2023-06-22T12:16:55;7.03;;;3.17;;
47053;SDS011;32811;52.382;5.270;2023-06-22T12:19:27;6.78;;;3.83;;
47053;SDS011;32811;52.382;5.270;2023-06-22T12:22:02;4.43;;;3.35;;
47053;SDS011;32811;52.382;5.270;2023-06-22T12:24:31;3.75;;;3.00;;
47053;SDS011;32811;52.382;5.270;2023-06-22T12:26:58;4.53;;;3.15;;
47053;SDS011;32811;52.382;5.270;2023-06-22T12:29:24;6.03;;;3.38;;
47053;SDS011;32811;52.382;5.270;2023-06-22T12:31:51;5.03;;;3.10;;
47053;SDS011;32811;52.382;5.270;2023-06-22T12:34:18;4.78;;;3.53;;
47053;SDS011;32811;52.382;5.270;2023-06-22T12:36:44;3.90;;;2.97;;
47053;SDS011;32811;52.382;5.270;2023-06-22T12:39:13;4.63;;;3.83;;
47053;SDS011;32811;52.382;5.270;2023-06-22T12:41:40;5.53;;;4.07;;
47053;SDS011;32811;52.382;5.270;2023-06-22T12:44:07;7.28;;;4.03;;
47053;SDS011;32811;52.382;5.270;2023-06-22T12:46:33;10.55;;;3.95;;
47053;SDS011;32811;52.382;5.270;2023-06-22T12:49:04;5.15;;;3.97;;
47053;SDS011;32811;52.382;5.270;2023-06-22T12:51:31;6.05;;;3.58;;
47053;SDS011;32811;52.382;5.270;2023-06-22T12:53:58;5.82;;;3.78;;
47053;SDS011;32811;52.382;5.270;2023-06-22T12:56:24;4.97;;;4.38;;
47053;SDS011;32811;52.382;5.270;2023-06-22T12:58:51;4.90;;;4.43;;
47053;SDS011;32811;52.382;5.270;2023-06-22T13:01:18;6.60;;;4.18;;
47053;SDS011;32811;52.382;5.270;2023-06-22T13:03:44;7.18;;;4.40;;
47053;SDS011;32811;52.382;5.270;2023-06-22T13:06:11;5.63;;;3.88;;
47053;SDS011;32811;52.382;5.270;2023-06-22T13:08:38;7.70;;;4.32;;
47053;SDS011;32811;52.382;5.270;2023-06-22T13:11:07;5.30;;;4.80;;
47053;SDS011;32811;52.382;5.270;2023-06-22T13:13:34;5.38;;;4.88;;
47053;SDS011;32811;52.382;5.270;2023-06-22T13:16:01;7.65;;;5.30;;
47053;SDS011;32811;52.382;5.270;2023-06-22T13:18:27;7.30;;;4.65;;
47053;SDS011;32811;52.382;5.270;2023-06-22T13:20:54;7.30;;;5.25;;
47053;SDS011;32811;52.382;5.270;2023-06-22T13:23:21;8.45;;;5.10;;
47053;SDS011;32811;52.382;5.270;2023-06-22T13:25:48;5.70;;;5.20;;
47053;SDS011;32811;52.382;5.270;2023-06-22T13:28:14;7.47;;;4.82;;
47053;SDS011;32811;52.382;5.270;2023-06-22T13:30:54;7.10;;;5.40;;
47053;SDS011;32811;52.382;5.270;2023-06-22T13:33:20;6.95;;;5.20;;
47053;SDS011;32811;52.382;5.270;2023-06-22T13:35:47;7.60;;;5.90;;
47053;SDS011;32811;52.382;5.270;2023-06-22T13:38:14;7.40;;;4.85;;
47053;SDS011;32811;52.382;5.270;2023-06-22T13:40:40;8.80;;;5.15;;
47053;SDS011;32811;52.382;5.270;2023-06-22T13:43:07;10.02;;;5.07;;
47053;SDS011;32811;52.382;5.270;2023-06-22T13:45:34;5.85;;;5.15;;
47053;SDS011;32811;52.382;5.270;2023-06-22T13:48:01;8.02;;;5.03;;
47053;SDS011;32811;52.382;5.270;2023-06-22T13:50:28;7.18;;;4.85;;
47053;SDS011;32811;52.382;5.270;2023-06-22T13:52:56;7.30;;;5.03;;
47053;SDS011;32811;52.382;5.270;2023-06-22T13:55:23;6.35;;;4.57;;
47053;SDS011;32811;52.382;5.270;2023-06-22T13:57:50;10.55;;;4.97;;
47053;SDS011;32811;52.382;5.270;2023-06-22T14:00:17;8.25;;;5.07;;
47053;SDS011;32811;52.382;5.270;2023-06-22T14:02:44;5.65;;;4.47;;
47053;SDS011;32811;52.382;5.270;2023-06-22T14:05:12;8.30;;;4.90;;
47053;SDS011;32811;52.382;5.270;2023-06-22T14:07:39;6.50;;;4.80;;
47053;SDS011;32811;52.382;5.270;2023-06-22T14:10:06;5.43;;;4.53;;
47053;SDS011;32811;52.382;5.270;2023-06-22T14:12:33;6.45;;;5.70;;
47053;SDS011;32811;52.382;5.270;2023-06-22T14:15:00;6.65;;;4.80;;
47053;SDS011;32811;52.382;5.270;2023-06-22T14:17:26;6.60;;;5.15;;
47053;SDS011;32811;52.382;5.270;2023-06-22T14:19:53;6.88;;;4.43;;
47053;SDS011;32811;52.382;5.270;2023-06-22T14:22:20;7.95;;;4.97;;
47053;SDS011;32811;52.382;5.270;2023-06-22T14:24:48;6.45;;;4.88;;
47053;SDS011;32811;52.382;5.270;2023-06-22T14:27:15;8.57;;;5.60;;
47053;SDS011;32811;52.382;5.270;2023-06-22T14:29:45;6.05;;;5.45;;
47053;SDS011;32811;52.382;5.270;2023-06-22T14:32:12;8.02;;;6.00;;
47053;SDS011;32811;52.382;5.270;2023-06-22T14:34:38;6.53;;;5.90;;
47053;SDS011;32811;52.382;5.270;2023-06-22T14:37:08;5.97;;;5.30;;
47053;SDS011;32811;52.382;5.270;2023-06-22T14:39:39;9.75;;;6.97;;
47053;SDS011;32811;52.382;5.270;2023-06-22T14:42:06;10.70;;;6.18;;
47053;SDS011;32811;52.382;5.270;2023-06-22T14:44:32;7.57;;;5.70;;
47053;SDS011;32811;52.382;5.270;2023-06-22T14:46:59;12.65;;;7.28;;
47053;SDS011;32811;52.382;5.270;2023-06-22T14:49:26;8.65;;;6.97;;
47053;SDS011;32811;52.382;5.270;2023-06-22T14:51:52;10.82;;;6.78;;
47053;SDS011;32811;52.382;5.270;2023-06-22T14:54:19;8.50;;;6.50;;